Time;durP1;ratioP1;P1;durP2;ratioP2;P2;SDS_P1;SDS_P2;PMS_P1;PMS_P2;Temp;Humidity;BMP_temperature;BMP_pressure;BME280_temperature;BME280_humidity;BME280_pressure;Samples;Min_cycle;Max_cycle;Signal;HPM_P1;HPM_P2
2022/04/11 00:00:48;;;;;;;;;;;;;;;11.56;100.00;98868.53;5109455;28;19935;-83
2022/04/11 00:03:15;;;;;;;;;;;;;;;11.89;100.00;98859.75;5075855;28;19924;-84
2022/04/11 00:05:42;;;;;;;;;;;;;;;11.54;100.00;98860.56;5059257;28;20013;-83
2022/04/11 00:08:09;;;;;;;;;;;;;;;10.53;100.00;98860.72;5076152;28;20379;-83
2022/04/11 00:10:37;;;;;;;;;;;;;;;11.46;100.00;98861.97;5076045;28;19935;-83
2022/04/11 00:13:05;;;;;;;;;;;;;;;11.48;100.00;98867.91;5076245;28;19924;-83
2022/04/11 00:15:38;;;;;;;;;;;;;;;11.47;100.00;98866.34;5075938;28;19938;-83
2022/04/11 00:18:05;;;;;;;;;;;;;;;10.82;100.00;98858.94;5059741;28;19924;-83
2022/04/11 00:20:33;;;;;;;;;;;;;;;10.55;100.00;98861.09;5079956;28;19928;-83
2022/04/11 00:23:00;;;;;;;;;;;;;;;10.90;100.00;98852.00;5063520;28;19924;-83
2022/04/11 00:25:27;;;;;;;;;;;;;;;11.45;100.00;98846.38;5063117;28;20363;-83
2022/04/11 00:27:55;;;;;;;;;;;;;;;11.23;100.00;98848.09;5079788;28;19973;-83
2022/04/11 00:30:22;;;;;;;;;;;;;;;11.07;100.00;98845.25;5079715;28;20428;-83
2022/04/11 00:32:49;;;;;;;;;;;;;;;11.12;100.00;98843.97;5063313;28;19929;-84
2022/04/11 00:35:16;;;;;;;;;;;;;;;10.85;100.00;98858.09;5046240;28;19931;-83
2022/04/11 00:37:43;;;;;;;;;;;;;;;10.82;100.00;98853.34;5079677;28;19931;-83
2022/04/11 00:40:10;;;;;;;;;;;;;;;10.17;100.00;98854.22;5079584;28;19924;-83
2022/04/11 00:42:38;;;;;;;;;;;;;;;10.82;100.00;98847.78;5062560;28;19949;-83
2022/04/11 00:45:06;;;;;;;;;;;;;;;11.18;100.00;98848.59;5063145;28;19928;-83
2022/04/11 00:47:33;;;;;;;;;;;;;;;11.45;100.00;98835.19;5029675;28;20016;-83
2022/04/11 00:50:05;;;;;;;;;;;;;;;11.47;100.00;98843.94;5063067;28;19924;-83
2022/04/11 00:52:34;;;;;;;;;;;;;;;11.69;100.00;98845.03;5062761;28;19924;-84
2022/04/11 00:55:02;;;;;;;;;;;;;;;11.10;100.00;98836.00;5063174;28;19925;-83
2022/04/11 00:57:30;;;;;;;;;;;;;;;10.62;100.00;98847.75;5078918;28;19978;-83
2022/04/11 00:59:59;;;;;;;;;;;;;;;11.12;100.00;98841.94;5045999;28;19928;-83
2022/04/11 01:02:27;;;;;;;;;;;;;;;11.37;100.00;98839.41;5097145;28;19924;-83
2022/04/11 01:04:56;;;;;;;;;;;;;;;11.44;100.00;98833.63;5062789;28;19924;-83
2022/04/11 01:07:23;;;;;;;;;;;;;;;11.31;100.00;98829.94;5078961;28;20439;-83
2022/04/11 01:09:51;;;;;;;;;;;;;;;11.08;100.00;98821.66;5079059;28;19925;-84
2022/04/11 01:12:21;;;;;;;;;;;;;;;11.40;100.00;98821.75;5063116;28;19925;-84
2022/04/11 01:14:52;;;;;;;;;;;;;;;11.09;100.00;98823.22;5063289;28;19928;-83
2022/04/11 01:17:20;;;;;;;;;;;;;;;10.65;100.00;98821.75;5062071;28;19928;-83
2022/04/11 01:19:47;;;;;;;;;;;;;;;10.25;100.00;98811.00;5079028;28;20298;-83
2022/04/11 01:22:14;;;;;;;;;;;;;;;10.56;100.00;98812.38;5045752;28;19924;-83
2022/04/11 01:24:41;;;;;;;;;;;;;;;10.70;100.00;98807.28;5045553;28;19946;-83
2022/04/11 01:27:08;;;;;;;;;;;;;;;11.04;100.00;98815.38;5061681;28;19928;-83
2022/04/11 01:29:36;;;;;;;;;;;;;;;10.70;100.00;98812.09;5061956;28;19934;-83
2022/04/11 01:32:04;;;;;;;;;;;;;;;10.17;100.00;98817.91;5061146;28;20019;-83
2022/04/11 01:34:31;;;;;;;;;;;;;;;10.41;100.00;98805.47;5095360;28;19924;-83
2022/04/11 01:36:58;;;;;;;;;;;;;;;10.93;100.00;98800.81;5062595;28;19986;-83
2022/04/11 01:39:26;;;;;;;;;;;;;;;10.45;100.00;98800.63;5097293;28;20022;-83
2022/04/11 01:41:53;;;;;;;;;;;;;;;10.95;100.00;98795.56;5101639;28;19924;-83
2022/04/11 01:44:20;;;;;;;;;;;;;;;11.17;100.00;98788.31;5086024;28;19958;-83
2022/04/11 01:46:50;;;;;;;;;;;;;;;10.11;100.00;98791.69;5103032;28;19924;-83
2022/04/11 01:49:19;;;;;;;;;;;;;;;10.37;100.00;98801.97;5085643;28;19935;-83
2022/04/11 01:51:46;;;;;;;;;;;;;;;10.02;100.00;98794.22;5095140;28;20022;-83
2022/04/11 01:54:13;;;;;;;;;;;;;;;10.56;100.00;98784.44;5096396;28;19924;-83
2022/04/11 01:56:40;;;;;;;;;;;;;;;10.89;100.00;98791.72;5061341;28;19924;-83
2022/04/11 01:59:08;;;;;;;;;;;;;;;10.23;100.00;98788.28;5078268;28;19951;-83
2022/04/11 02:01:35;;;;;;;;;;;;;;;10.62;100.00;98786.31;5078438;28;19925;-83
2022/04/11 02:04:03;;;;;;;;;;;;;;;10.63;100.00;98778.72;5077920;28;20381;-83
2022/04/11 02:06:30;;;;;;;;;;;;;;;10.91;100.00;98778.09;5044986;28;19924;-83
2022/04/11 02:08:57;;;;;;;;;;;;;;;10.85;100.00;98780.63;5094717;28;19924;-83
2022/04/11 02:11:24;;;;;;;;;;;;;;;10.94;100.00;98778.03;5061438;28;20264;-83
2022/04/11 02:13:51;;;;;;;;;;;;;;;11.12;100.00;98776.84;5061021;28;20019;-83
2022/04/11 02:16:19;;;;;;;;;;;;;;;10.47;100.00;98764.66;5061073;28;20401;-83
2022/04/11 02:18:45;;;;;;;;;;;;;;;10.65;100.00;98765.88;5077640;28;20367;-83
2022/04/11 02:21:12;;;;;;;;;;;;;;;10.89;100.00;98772.16;5060868;28;19931;-83
2022/04/11 02:23:40;;;;;;;;;;;;;;;10.98;100.00;98754.81;5077657;28;19924;-83
2022/04/11 02:26:07;;;;;;;;;;;;;;;10.28;100.00;98763.47;5060738;28;19924;-83
2022/04/11 02:28:34;;;;;;;;;;;;;;;10.48;100.00;98752.28;5094494;28;19924;-83
2022/04/11 02:31:02;;;;;;;;;;;;;;;10.12;100.00;98748.59;5061020;28;19960;-83
2022/04/11 02:33:29;;;;;;;;;;;;;;;10.44;100.00;98741.19;5044050;28;19928;-83
2022/04/11 02:35:56;;;;;;;;;;;;;;;10.68;100.00;98737.06;5027680;28;19931;-83
2022/04/11 02:38:24;;;;;;;;;;;;;;;9.91;100.00;98746.19;5060779;28;19928;-83
2022/04/11 02:40:51;;;;;;;;;;;;;;;10.01;100.00;98742.41;5077197;28;20372;-83
2022/04/11 02:43:23;;;;;;;;;;;;;;;9.79;100.00;98744.00;5060507;28;19930;-83
2022/04/11 02:45:55;;;;;;;;;;;;;;;9.66;100.00;98743.84;5060442;28;19931;-83
2022/04/11 02:48:28;;;;;;;;;;;;;;;9.63;100.00;98743.91;5043902;28;20299;-83
2022/04/11 02:51:05;;;;;;;;;;;;;;;10.36;100.00;98747.34;5062176;28;20023;-83
2022/04/11 02:53:42;;;;;;;;;;;;;;;10.31;100.00;98742.25;5062369;28;20006;-83
2022/04/11 02:56:09;;;;;;;;;;;;;;;10.42;100.00;98735.22;5060286;28;19967;-83
2022/04/11 02:58:37;;;;;;;;;;;;;;;9.73;100.00;98726.19;5044011;28;19924;-83
2022/04/11 03:01:04;;;;;;;;;;;;;;;10.00;100.00;98733.25;5043686;28;19924;-83
2022/04/11 03:03:32;;;;;;;;;;;;;;;9.82;100.00;98726.41;5060469;28;19931;-83
2022/04/11 03:06:00;;;;;;;;;;;;;;;10.08;100.00;98723.56;5044064;28;19924;-83
2022/04/11 03:08:28;;;;;;;;;;;;;;;9.72;100.00;98717.06;5043571;28;19924;-83
2022/04/11 03:10:57;;;;;;;;;;;;;;;9.61;100.00;98707.28;5044069;28;19924;-83
2022/04/11 03:13:26;;;;;;;;;;;;;;;9.49;100.00;98699.53;5059921;28;19924;-83
2022/04/11 03:15:53;;;;;;;;;;;;;;;9.31;100.00;98699.03;5060647;28;19924;-83
2022/04/11 03:18:21;;;;;;;;;;;;;;;8.99;100.00;98699.56;5076535;28;19959;-83
2022/04/11 03:20:49;;;;;;;;;;;;;;;8.69;100.00;98696.81;5060143;28;19935;-82
2022/04/11 03:23:17;;;;;;;;;;;;;;;8.89;100.00;98695.72;5076298;28;20009;-82
2022/04/11 03:25:48;;;;;;;;;;;;;;;8.84;100.00;98699.00;5059689;28;19924;-82
2022/04/11 03:28:20;;;;;;;;;;;;;;;9.09;100.00;98713.31;5076383;28;19965;-83
2022/04/11 03:30:48;;;;;;;;;;;;;;;9.06;100.00;98705.81;5076318;28;19924;-83
2022/04/11 03:33:16;;;;;;;;;;;;;;;9.05;100.00;98707.03;5076814;28;19924;-83
2022/04/11 03:35:43;;;;;;;;;;;;;;;9.11;100.00;98708.13;5076763;28;19932;-83
2022/04/11 03:38:11;;;;;;;;;;;;;;;9.08;100.00;98714.53;5075887;28;19928;-83
2022/04/11 03:40:38;;;;;;;;;;;;;;;9.04;100.00;98702.63;5059723;28;19931;-83
2022/04/11 03:43:09;;;;;;;;;;;;;;;9.33;100.00;98697.38;5076400;28;20018;-83
2022/04/11 03:45:36;;;;;;;;;;;;;;;9.07;100.00;98707.38;5092812;28;19935;-83
2022/04/11 03:48:04;;;;;;;;;;;;;;;8.69;100.00;98708.72;5076332;28;19930;-79
2022/04/11 03:50:36;;;;;;;;;;;;;;;8.61;100.00;98700.91;5059694;28;19924;-83
2022/04/11 03:53:03;;;;;;;;;;;;;;;8.94;100.00;98709.19;5043106;28;19927;-83
2022/04/11 03:55:33;;;;;;;;;;;;;;;8.76;100.00;98714.22;5059359;28;19949;-82
2022/04/11 03:58:01;;;;;;;;;;;;;;;9.32;100.00;98703.38;5059948;28;19932;-83
2022/04/11 04:00:31;;;;;;;;;;;;;;;9.00;100.00;98701.13;5075516;28;19963;-83
2022/04/11 04:03:16;;;;;;;;;;;;;;;9.01;100.00;98705.50;5094092;28;19924;-82
2022/04/11 04:05:52;;;;;;;;;;;;;;;8.65;100.00;98699.66;5092622;28;20283;-82
2022/04/11 04:08:24;;;;;;;;;;;;;;;8.46;100.00;98708.69;5059503;28;19924;-82
2022/04/11 04:10:57;;;;;;;;;;;;;;;8.53;100.00;98711.34;5109740;28;19931;-82
2022/04/11 04:13:30;;;;;;;;;;;;;;;8.47;100.00;98710.25;5076811;28;19928;-82
2022/04/11 04:16:03;;;;;;;;;;;;;;;8.71;100.00;98695.19;5093346;28;19966;-82
2022/04/11 04:18:40;;;;;;;;;;;;;;;8.74;100.00;98694.34;5077483;28;19924;-82
2022/04/11 04:21:09;;;;;;;;;;;;;;;8.73;100.00;98687.22;5092087;28;19986;-82
2022/04/11 04:23:37;;;;;;;;;;;;;;;8.46;100.00;98683.63;5092402;28;20023;-82
2022/04/11 04:26:04;;;;;;;;;;;;;;;8.71;100.00;98695.19;5059181;28;20358;-82
2022/04/11 04:28:32;;;;;;;;;;;;;;;8.53;100.00;98688.28;5109557;28;20288;-81
2022/04/11 04:30:59;;;;;;;;;;;;;;;8.32;100.00;98694.94;5075795;28;19958;-82
2022/04/11 04:33:31;;;;;;;;;;;;;;;8.34;100.00;98692.53;5058970;28;20337;-81
2022/04/11 04:36:01;;;;;;;;;;;;;;;8.25;100.00;98680.31;5026434;28;19924;-81
2022/04/11 04:38:28;;;;;;;;;;;;;;;8.23;100.00;98689.09;5056384;28;20264;-81
2022/04/11 04:40:56;;;;;;;;;;;;;;;8.32;100.00;98683.81;5059179;28;20366;-81
2022/04/11 04:43:25;;;;;;;;;;;;;;;8.32;100.00;98688.56;5075681;28;19925;-81
2022/04/11 04:45:53;;;;;;;;;;;;;;;8.31;100.00;98676.66;5075603;28;19990;-81
2022/04/11 04:48:34;;;;;;;;;;;;;;;8.16;100.00;98685.56;5044304;28;20034;-82
2022/04/11 04:51:02;;;;;;;;;;;;;;;8.06;100.00;98684.50;5075586;28;19924;-81
2022/04/11 04:53:33;;;;;;;;;;;;;;;8.05;100.00;98680.13;5059230;28;20286;-81
2022/04/11 04:56:02;;;;;;;;;;;;;;;8.03;100.00;98682.53;5075696;28;20347;-81
2022/04/11 04:58:33;;;;;;;;;;;;;;;7.96;100.00;98676.28;5091833;28;19931;-81
2022/04/11 05:01:01;;;;;;;;;;;;;;;7.99;100.00;98684.59;5075537;28;19924;-81
2022/04/11 05:03:29;;;;;;;;;;;;;;;8.00;100.00;98682.56;5058869;28;20010;-81
2022/04/11 05:05:56;;;;;;;;;;;;;;;8.09;100.00;98682.88;5093208;28;20291;-81
2022/04/11 05:08:24;;;;;;;;;;;;;;;8.03;100.00;98688.09;5079357;28;19927;-81
2022/04/11 05:10:51;;;;;;;;;;;;;;;8.14;100.00;98683.22;5062415;28;20038;-81
2022/04/11 05:13:19;;;;;;;;;;;;;;;8.36;100.00;98678.97;5078963;28;20303;-81
2022/04/11 05:15:47;;;;;;;;;;;;;;;7.98;100.00;98674.63;5078591;28;20287;-81
2022/04/11 05:18:20;;;;;;;;;;;;;;;7.88;100.00;98683.91;5078740;28;19924;-81
2022/04/11 05:20:48;;;;;;;;;;;;;;;7.88;100.00;98678.34;5062804;28;20282;-82
2022/04/11 05:23:18;;;;;;;;;;;;;;;8.23;100.00;98672.38;5078791;28;20386;-81
2022/04/11 05:25:46;;;;;;;;;;;;;;;8.14;100.00;98672.06;5062359;28;20077;-81
2022/04/11 05:28:14;;;;;;;;;;;;;;;8.48;100.00;98669.28;5078975;28;19924;-81
2022/04/11 05:30:50;;;;;;;;;;;;;;;7.80;100.00;98662.94;5095564;28;20332;-81
2022/04/11 05:33:20;;;;;;;;;;;;;;;7.80;100.00;98662.94;5110763;28;19935;-81
2022/04/11 05:35:48;;;;;;;;;;;;;;;7.97;100.00;98653.59;5078606;28;20069;-81
2022/04/11 05:38:16;;;;;;;;;;;;;;;7.76;100.00;98651.06;5061844;28;19925;-82
2022/04/11 05:40:47;;;;;;;;;;;;;;;7.56;100.00;98647.31;5062137;28;19924;-81
2022/04/11 05:43:25;;;;;;;;;;;;;;;7.69;100.00;98651.16;5078727;28;19962;-83
2022/04/11 05:45:52;;;;;;;;;;;;;;;7.62;100.00;98650.44;5096612;28;20295;-81
2022/04/11 05:48:19;;;;;;;;;;;;;;;7.90;100.00;98650.13;5075740;28;20409;-81
2022/04/11 05:50:46;;;;;;;;;;;;;;;7.87;100.00;98650.94;5077589;28;20389;-81
2022/04/11 05:53:14;;;;;;;;;;;;;;;8.01;100.00;98646.00;5078358;28;19924;-81
2022/04/11 05:55:41;;;;;;;;;;;;;;;8.28;100.00;98646.09;5095009;28;20009;-82
2022/04/11 05:58:08;;;;;;;;;;;;;;;7.79;100.00;98644.69;5061783;28;19924;-78
2022/04/11 06:00:35;;;;;;;;;;;;;;;7.93;100.00;98635.38;5078262;28;19928;-82
2022/04/11 06:03:03;;;;;;;;;;;;;;;8.02;100.00;98644.00;5061020;28;19964;-80
2022/04/11 06:05:30;;;;;;;;;;;;;;;8.52;100.00;98637.41;5061884;28;20470;-82
2022/04/11 06:07:57;;;;;;;;;;;;;;;8.04;100.00;98647.94;5061779;28;19924;-79
2022/04/11 06:10:25;;;;;;;;;;;;;;;8.07;100.00;98638.78;5061602;28;19997;-79
2022/04/11 06:12:54;;;;;;;;;;;;;;;8.22;100.00;98636.59;5096128;28;19963;-79
2022/04/11 06:15:21;;;;;;;;;;;;;;;8.38;100.00;98637.59;5061302;28;20379;-79
2022/04/11 06:17:52;;;;;;;;;;;;;;;8.26;100.00;98618.66;5060884;28;20294;-79
2022/04/11 06:20:19;;;;;;;;;;;;;;;8.29;100.00;98622.59;5061433;28;19930;-79
2022/04/11 06:22:47;;;;;;;;;;;;;;;8.26;100.00;98613.09;5061872;28;20000;-79
2022/04/11 06:25:15;;;;;;;;;;;;;;;8.17;100.00;98614.78;5077851;28;19928;-80
2022/04/11 06:27:42;;;;;;;;;;;;;;;8.19;100.00;98615.16;5094595;28;19924;-79
2022/04/11 06:30:10;;;;;;;;;;;;;;;8.08;100.00;98615.31;5077909;28;19928;-79
2022/04/11 06:32:40;;;;;;;;;;;;;;;8.32;100.00;98607.84;5077736;28;19925;-79
2022/04/11 06:35:08;;;;;;;;;;;;;;;8.53;100.00;98599.97;5111672;28;19932;-80
2022/04/11 06:37:35;;;;;;;;;;;;;;;8.78;100.00;98600.34;5076849;28;19924;-79
2022/04/11 06:40:04;;;;;;;;;;;;;;;8.98;100.00;98590.09;5077237;28;19931;-80
2022/04/11 06:42:33;;;;;;;;;;;;;;;8.64;100.00;98595.03;5077665;28;20012;-79
2022/04/11 06:45:04;;;;;;;;;;;;;;;9.01;100.00;98580.09;5077128;28;19924;-80
2022/04/11 06:47:33;;;;;;;;;;;;;;;9.34;100.00;98575.50;5060943;28;19931;-79
2022/04/11 06:50:01;;;;;;;;;;;;;;;9.67;100.00;98575.25;5077232;28;20636;-79
2022/04/11 06:52:28;;;;;;;;;;;;;;;9.49;100.00;98579.59;5095533;28;19924;-79
2022/04/11 06:54:56;;;;;;;;;;;;;;;9.61;100.00;98581.75;5095438;28;19931;-79
2022/04/11 06:57:24;;;;;;;;;;;;;;;9.64;100.00;98587.28;5111349;28;19924;-79
2022/04/11 06:59:51;;;;;;;;;;;;;;;9.04;100.00;98585.59;5076582;28;19931;-80
2022/04/11 07:02:19;;;;;;;;;;;;;;;9.10;100.00;98600.63;5076994;28;19967;-79
2022/04/11 07:04:47;;;;;;;;;;;;;;;8.87;100.00;98589.50;5060080;28;19974;-79
2022/04/11 07:07:15;;;;;;;;;;;;;;;9.14;100.00;98603.34;5095026;28;19924;-80
2022/04/11 07:09:42;;;;;;;;;;;;;;;9.06;100.00;98611.06;5072341;28;20070;-76
2022/04/11 07:12:10;;;;;;;;;;;;;;;9.09;100.00;98604.63;5085462;28;19936;-83
2022/04/11 07:14:37;;;;;;;;;;;;;;;9.55;100.00;98606.59;5059503;28;19928;-82
2022/04/11 07:17:05;;;;;;;;;;;;;;;9.44;100.00;98596.81;5076691;28;19946;-83
2022/04/11 07:19:33;;;;;;;;;;;;;;;9.55;100.00;98591.84;5059911;28;19924;-82
2022/04/11 07:22:00;;;;;;;;;;;;;;;9.77;100.00;98591.00;5076751;28;19928;-83
2022/04/11 07:24:27;;;;;;;;;;;;;;;9.51;100.00;98585.56;5077049;28;19932;-83
2022/04/11 07:26:54;;;;;;;;;;;;;;;9.75;100.00;98584.28;5076567;28;19924;-84
2022/04/11 07:29:21;;;;;;;;;;;;;;;9.60;100.00;98577.41;5093790;28;19970;-85
2022/04/11 07:31:48;;;;;;;;;;;;;;;10.24;100.00;98572.06;5076446;28;20055;-84
2022/04/11 07:34:16;;;;;;;;;;;;;;;10.61;100.00;98575.19;5059875;28;19924;-83
2022/04/11 07:36:43;;;;;;;;;;;;;;;10.71;100.00;98581.72;5059605;28;19924;-83
2022/04/11 07:39:10;;;;;;;;;;;;;;;10.75;100.00;98576.88;5039433;28;19929;-83
2022/04/11 07:41:37;;;;;;;;;;;;;;;11.07;100.00;98570.47;5074568;28;19924;-79
2022/04/11 07:44:04;;;;;;;;;;;;;;;11.57;100.00;98568.69;5089302;28;19925;-81
2022/04/11 07:46:31;;;;;;;;;;;;;;;12.07;100.00;98563.28;5099526;28;19928;-76
2022/04/11 07:48:58;;;;;;;;;;;;;;;11.62;100.00;98564.56;5100181;28;19924;-76
2022/04/11 07:51:25;;;;;;;;;;;;;;;11.28;100.00;98559.53;5041197;28;19924;-76
2022/04/11 07:53:52;;;;;;;;;;;;;;;11.58;100.00;98561.88;5090358;28;19924;-77
2022/04/11 07:56:19;;;;;;;;;;;;;;;11.17;100.00;98578.59;5088832;28;19924;-75
2022/04/11 07:58:46;;;;;;;;;;;;;;;11.62;100.00;98559.81;5089016;28;19924;-73
2022/04/11 08:01:16;;;;;;;;;;;;;;;11.84;100.00;98562.78;5072444;28;19924;-77
2022/04/11 08:03:47;;;;;;;;;;;;;;;11.40;100.00;98553.19;5086295;28;19924;-76
2022/04/11 08:06:14;;;;;;;;;;;;;;;11.23;100.00;98548.88;5099283;28;19970;-75
2022/04/11 08:08:44;;;;;;;;;;;;;;;11.40;100.00;98547.59;5089323;28;19989;-77
2022/04/11 08:11:11;;;;;;;;;;;;;;;11.05;100.00;98554.13;5087923;28;19955;-76
2022/04/11 08:13:46;;;;;;;;;;;;;;;11.09;100.00;98549.22;5077346;28;19960;-76
2022/04/11 08:16:13;;;;;;;;;;;;;;;11.34;100.00;98543.78;5085222;28;19924;-76
2022/04/11 08:18:40;;;;;;;;;;;;;;;11.23;100.00;98548.88;5080907;28;19928;-77
2022/04/11 08:21:07;;;;;;;;;;;;;;;11.05;100.00;98544.97;5086757;28;19939;-77
2022/04/11 08:23:34;;;;;;;;;;;;;;;10.81;100.00;98533.97;5088734;28;19954;-77
2022/04/11 08:26:02;;;;;;;;;;;;;;;10.56;100.00;98560.94;5086526;28;19953;-75
2022/04/11 08:28:29;;;;;;;;;;;;;;;10.58;100.00;98553.72;5089702;28;19981;-74
2022/04/11 08:30:56;;;;;;;;;;;;;;;10.43;100.00;98551.69;5089494;28;19924;-76
2022/04/11 08:33:24;;;;;;;;;;;;;;;10.51;100.00;98548.28;5090090;28;19973;-76
2022/04/11 08:35:52;;;;;;;;;;;;;;;10.57;100.00;98546.53;5089334;28;19928;-76
2022/04/11 08:38:19;;;;;;;;;;;;;;;10.53;100.00;98550.66;5087277;28;19924;-76
2022/04/11 08:40:46;;;;;;;;;;;;;;;10.61;100.00;98535.28;5090421;28;19928;-76
2022/04/11 08:43:14;;;;;;;;;;;;;;;10.37;100.00;98539.47;5090860;28;20024;-76
2022/04/11 08:45:41;;;;;;;;;;;;;;;10.50;100.00;98541.13;5091554;28;19977;-76
2022/04/11 08:48:09;;;;;;;;;;;;;;;10.96;100.00;98548.38;5092061;28;19924;-76
2022/04/11 08:50:36;;;;;;;;;;;;;;;10.98;100.00;98538.31;5091532;28;19927;-76
2022/04/11 08:53:04;;;;;;;;;;;;;;;10.69;100.00;98533.91;5091437;28;19930;-76
2022/04/11 08:55:31;;;;;;;;;;;;;;;10.75;100.00;98546.13;5091978;28;20019;-78
2022/04/11 08:57:59;;;;;;;;;;;;;;;10.81;100.00;98533.19;5091853;28;19928;-78
2022/04/11 09:00:27;;;;;;;;;;;;;;;10.81;100.00;98549.97;5089879;28;19924;-79
2022/04/11 09:02:55;;;;;;;;;;;;;;;10.59;100.00;98537.72;5091044;28;19924;-76
2022/04/11 09:05:23;;;;;;;;;;;;;;;10.32;100.00;98563.13;5091638;28;19924;-76
2022/04/11 09:07:55;;;;;;;;;;;;;;;10.77;100.00;98540.88;5090249;28;19928;-74
2022/04/11 09:10:23;;;;;;;;;;;;;;;10.63;100.00;98533.63;5090004;28;19931;-75
2022/04/11 09:12:52;;;;;;;;;;;;;;;10.92;100.00;98533.69;5092332;28;19986;-76
2022/04/11 09:15:20;;;;;;;;;;;;;;;10.46;100.00;98529.28;5091236;28;19932;-75
2022/04/11 09:17:47;;;;;;;;;;;;;;;10.48;100.00;98535.19;5091281;28;19958;-75
2022/04/11 09:20:16;;;;;;;;;;;;;;;10.50;100.00;98526.38;5090572;28;20029;-75
2022/04/11 09:22:43;;;;;;;;;;;;;;;10.88;100.00;98521.84;5091190;28;19969;-75
2022/04/11 09:25:11;;;;;;;;;;;;;;;11.02;100.00;98515.88;5089643;28;20361;-75
2022/04/11 09:27:40;;;;;;;;;;;;;;;11.15;100.00;98513.91;5091805;28;19931;-79
2022/04/11 09:30:21;;;;;;;;;;;;;;;11.12;100.00;98502.84;5090104;28;19927;-79
2022/04/11 09:32:51;;;;;;;;;;;;;;;10.78;100.00;98490.13;5091847;28;20264;-79
2022/04/11 09:35:19;;;;;;;;;;;;;;;11.19;100.00;98497.84;5090847;28;20011;-79
2022/04/11 09:37:46;;;;;;;;;;;;;;;11.34;100.00;98482.25;5090960;28;19932;-78
2022/04/11 09:40:20;;;;;;;;;;;;;;;11.11;100.00;98485.28;5073431;28;19924;-78
2022/04/11 09:42:56;;;;;;;;;;;;;;;11.18;100.00;98493.47;5091338;28;19932;-79
2022/04/11 09:45:23;;;;;;;;;;;;;;;11.59;100.00;98465.53;5089642;28;19928;-78
2022/04/11 09:48:04;;;;;;;;;;;;;;;11.52;100.00;98467.75;5090516;28;19928;-78
2022/04/11 09:50:31;;;;;;;;;;;;;;;11.25;100.00;98462.53;5089522;28;20018;-78
2022/04/11 09:53:06;;;;;;;;;;;;;;;11.23;100.00;98459.38;5088894;28;20383;-79
2022/04/11 09:55:34;;;;;;;;;;;;;;;11.22;100.00;98449.44;5091061;28;19977;-79
2022/04/11 09:58:02;;;;;;;;;;;;;;;11.39;100.00;98478.13;5089399;28;19928;-76
2022/04/11 10:00:29;;;;;;;;;;;;;;;11.45;100.00;98446.34;5072759;28;20006;-79
2022/04/11 10:02:58;;;;;;;;;;;;;;;11.53;100.00;98458.91;5056400;28;20031;-77
2022/04/11 10:05:26;;;;;;;;;;;;;;;11.63;100.00;98457.81;5090884;28;20431;-76
2022/04/11 10:07:54;;;;;;;;;;;;;;;12.17;100.00;98444.56;5089940;28;19924;-76
2022/04/11 10:10:24;;;;;;;;;;;;;;;11.84;100.00;98446.03;5073203;28;20213;-76
2022/04/11 10:12:53;;;;;;;;;;;;;;;12.33;100.00;98444.44;5090944;28;20020;-76
2022/04/11 10:15:21;;;;;;;;;;;;;;;11.81;100.00;98443.31;5090129;28;20382;-76
2022/04/11 10:17:50;;;;;;;;;;;;;;;11.81;100.00;98458.09;5090051;28;20379;-76
2022/04/11 10:20:24;;;;;;;;;;;;;;;12.35;100.00;98436.38;5091086;28;19931;-76
2022/04/11 10:22:54;;;;;;;;;;;;;;;12.21;100.00;98428.41;5090463;28;19928;-76
2022/04/11 10:25:22;;;;;;;;;;;;;;;12.64;100.00;98428.59;5089956;28;19932;-76
2022/04/11 10:28:10;;;;;;;;;;;;;;;12.47;100.00;98413.16;5088556;28;20035;-77
2022/04/11 10:30:40;;;;;;;;;;;;;;;12.27;100.00;98404.22;5090185;28;20398;-76
2022/04/11 10:33:08;;;;;;;;;;;;;;;11.93;100.00;98401.34;5089855;28;20391;-76
2022/04/11 10:35:44;;;;;;;;;;;;;;;12.36;100.00;98400.72;5089355;28;19924;-76
2022/04/11 10:38:12;;;;;;;;;;;;;;;12.41;100.00;98398.16;5081324;28;20011;-76
2022/04/11 10:40:46;;;;;;;;;;;;;;;12.36;100.00;98404.31;5054835;28;19974;-76
2022/04/11 10:43:25;;;;;;;;;;;;;;;12.92;100.00;98409.97;5090558;28;19924;-76
2022/04/11 10:45:57;;;;;;;;;;;;;;;13.18;100.00;98394.63;5089501;28;19931;-76
2022/04/11 10:48:49;;;;;;;;;;;;;;;13.19;100.00;98384.19;5089138;28;19924;-77
2022/04/11 10:51:17;;;;;;;;;;;;;;;12.91;100.00;98393.59;5089960;28;19938;-77
2022/04/11 10:54:04;;;;;;;;;;;;;;;12.97;100.00;98394.59;5071005;28;19924;-77
2022/04/11 10:56:49;;;;;;;;;;;;;;;13.01;100.00;98392.47;5055321;28;19928;-76
2022/04/11 10:59:40;;;;;;;;;;;;;;;13.05;100.00;98395.94;5090252;28;19924;-77
2022/04/11 11:02:11;;;;;;;;;;;;;;;12.92;100.00;98398.00;5006618;28;19977;-78
2022/04/11 11:04:41;;;;;;;;;;;;;;;13.51;100.00;98384.53;5006005;28;19929;-75
2022/04/11 11:07:28;;;;;;;;;;;;;;;13.58;100.00;98355.44;4990868;28;19960;-75
2022/04/11 11:09:56;;;;;;;;;;;;;;;13.57;100.00;98371.47;4990722;28;20004;-75
2022/04/11 11:12:24;;;;;;;;;;;;;;;13.54;100.00;98366.03;5007424;28;20332;-76
2022/04/11 11:14:51;;;;;;;;;;;;;;;12.80;100.00;98363.16;5005338;28;19940;-75
2022/04/11 11:17:18;;;;;;;;;;;;;;;13.32;100.00;98366.06;5008341;28;19953;-77
2022/04/11 11:20:05;;;;;;;;;;;;;;;13.33;100.00;98376.03;5009298;28;20011;-77
2022/04/11 11:22:52;;;;;;;;;;;;;;;13.70;100.00;98357.34;5008829;28;19953;-76
2022/04/11 11:25:20;;;;;;;;;;;;;;;13.44;100.00;98355.97;5007511;28;19925;-76
2022/04/11 11:27:49;;;;;;;;;;;;;;;13.73;100.00;98356.44;4990122;28;19925;-77
2022/04/11 11:30:16;;;;;;;;;;;;;;;13.54;100.00;98338.72;5008747;28;19925;-76
2022/04/11 11:32:43;;;;;;;;;;;;;;;13.79;100.00;98354.59;4991032;28;19925;-76
2022/04/11 11:35:11;;;;;;;;;;;;;;;13.62;100.00;98361.69;5008222;28;19985;-77
2022/04/11 11:37:39;;;;;;;;;;;;;;;13.75;100.00;98365.19;5006044;28;20136;-77
2022/04/11 11:40:09;;;;;;;;;;;;;;;13.94;100.00;98344.34;5077657;28;19954;-76
2022/04/11 11:42:37;;;;;;;;;;;;;;;14.22;100.00;98343.19;5090294;28;19924;-77
2022/04/11 11:45:06;;;;;;;;;;;;;;;14.45;100.00;98334.19;5090951;28;20019;-76
2022/04/11 11:47:33;;;;;;;;;;;;;;;14.82;100.00;98324.53;5089970;28;19928;-76
2022/04/11 11:50:06;;;;;;;;;;;;;;;14.90;100.00;98320.16;5057235;28;19928;-81
2022/04/11 11:52:35;;;;;;;;;;;;;;;14.52;100.00;98306.56;5059023;28;20315;-81
2022/04/11 11:55:04;;;;;;;;;;;;;;;14.23;100.00;98305.41;5076117;28;19928;-81
2022/04/11 11:57:32;;;;;;;;;;;;;;;14.14;100.00;98299.78;5076632;28;19973;-80
2022/04/11 12:00:03;;;;;;;;;;;;;;;14.34;100.00;98303.72;5059248;28;19924;-80
2022/04/11 12:05:30;;;;;;;;;;;;;;;14.03;100.00;98279.78;5062192;28;20019;-85
2022/04/11 12:08:30;;;;;;;;;;;;;;;14.58;100.00;98270.19;5058985;28;19924;-81
2022/04/11 12:10:59;;;;;;;;;;;;;;;14.58;100.00;98270.19;5096633;28;19924;-82
2022/04/11 12:13:30;;;;;;;;;;;;;;;14.16;100.00;98283.25;5040191;28;19924;-81
2022/04/11 12:16:15;;;;;;;;;;;;;;;14.21;100.00;98262.94;5095419;28;20314;-81
2022/04/11 12:18:53;;;;;;;;;;;;;;;14.72;100.00;98268.78;5079940;28;20367;-81
2022/04/11 12:21:36;;;;;;;;;;;;;;;14.96;100.00;98238.72;5098295;28;19924;-82
2022/04/11 12:24:04;;;;;;;;;;;;;;;15.07;100.00;98253.84;5078110;28;20013;-82
2022/04/11 12:26:32;;;;;;;;;;;;;;;14.93;100.00;98248.13;5079747;28;20393;-82
2022/04/11 12:29:07;;;;;;;;;;;;;;;14.92;100.00;98250.13;5113510;28;20409;-82
2022/04/11 12:31:34;;;;;;;;;;;;;;;14.83;100.00;98252.97;5079986;28;20291;-82
2022/04/11 12:34:11;;;;;;;;;;;;;;;14.72;100.00;98261.13;5079666;28;20010;-82
2022/04/11 12:36:56;;;;;;;;;;;;;;;14.65;100.00;98264.22;5079982;28;19931;-81
2022/04/11 12:39:25;;;;;;;;;;;;;;;14.98;100.00;98265.13;5079977;28;20566;-84
2022/04/11 12:41:52;;;;;;;;;;;;;;;14.75;100.00;98263.00;5046250;28;19981;-75
2022/04/11 12:44:20;;;;;;;;;;;;;;;14.21;100.00;98255.31;5097228;28;19928;-76
2022/04/11 12:46:56;;;;;;;;;;;;;;;14.24;100.00;98259.22;5096981;28;19974;-76
2022/04/11 12:49:24;;;;;;;;;;;;;;;14.05;100.00;98261.22;5096844;28;19951;-76
2022/04/11 12:51:58;;;;;;;;;;;;;;;15.10;100.00;98260.59;5078767;28;19981;-76
2022/04/11 12:54:35;;;;;;;;;;;;;;;15.25;100.00;98253.78;5095675;28;20011;-76